This is the latest recevied weather packets stored in our database for station/object XE2CT-20. If no packets are shown the sender has not sent any weather packets the latest 10 day(s).
| Time | Temp. | Humidity | Pressure | Rain* | Wind** | Luminosity | Snow |
|---|---|---|---|---|---|---|---|
| 1778113906 | 37.78° C | 28% | 998 hPa | - | - | - | - |
| 1778113005 | 37.78° C | 27% | 998 hPa | - | - | - | - |
| 1778112104 | 37.78° C | 27% | 998 hPa | - | - | - | - |
| 1778111202 | 38.33° C | 26% | 997 hPa | - | - | - | - |
| 1778110301 | 39.44° C | 25% | 996 hPa | - | - | - | - |
| 1778109400 | 42.78° C | 23% | 994 hPa | - | - | - | - |
| 1778108499 | 41.11° C | 24% | 994 hPa | - | - | - | - |
| 1778107598 | 41.11° C | 25% | 993 hPa | - | - | - | - |
| 1778106697 | 39.44° C | 30% | 996 hPa | - | - | - | - |
| 1778105796 | 40° C | 29% | 995 hPa | - | - | - | - |
| 1778104895 | 39.44° C | 31% | 996 hPa | - | - | - | - |
| 1778103994 | 38.33° C | 32% | 996 hPa | - | - | - | - |
| 1778103093 | 37.22° C | 34% | 997 hPa | - | - | - | - |
| 1778102192 | 36.11° C | 39% | 1000 hPa | - | - | - | - |
| 1778101291 | 35° C | 40% | 1001 hPa | - | - | - | - |
| 1778100390 | 35° C | 41% | 1001 hPa | - | - | - | - |
| 1778099489 | 36.67° C | 39% | 1000 hPa | - | - | - | - |
| 1778098588 | 36.11° C | 40% | 1000 hPa | - | - | - | - |
| 1778097687 | 35° C | 44% | 1003 hPa | - | - | - | - |
| 1778096786 | 36.11° C | 42% | 1001 hPa | - | - | - | - |
| 1778095884 | 35° C | 45% | 1003 hPa | - | - | - | - |
| 1778094983 | 35° C | 45% | 1003 hPa | - | - | - | - |
| 1778094082 | 34.44° C | 45% | 1003 hPa | - | - | - | - |
| 1778093181 | 33.33° C | 49% | 1005 hPa | - | - | - | - |
| 1778092280 | 32.78° C | 50% | 1005 hPa | - | - | - | - |
* Rain since midnight (hover to see other rain measurements)
** Current wind speed in m/s (hover to see current wind gust speed)